createdAt,value
2019-04-07T00:02:28.041Z,11.89
2019-04-07T00:04:56.658Z,11.79
2019-04-07T00:07:25.402Z,11.76
2019-04-07T00:09:54.203Z,11.68
2019-04-07T00:12:22.807Z,11.61
2019-04-07T00:14:51.432Z,11.53
2019-04-07T00:17:19.595Z,11.44
2019-04-07T00:19:48.737Z,11.37
2019-04-07T00:22:17.127Z,11.29
2019-04-07T00:24:45.284Z,11.19
2019-04-07T00:27:14.380Z,11.14
2019-04-07T00:29:42.894Z,11.06
2019-04-07T00:32:11.351Z,10.99
2019-04-07T00:34:39.832Z,10.92
2019-04-07T00:37:08.273Z,10.86
2019-04-07T00:39:36.512Z,10.80
2019-04-07T00:42:04.740Z,10.76
2019-04-07T00:44:32.970Z,10.72
2019-04-07T00:47:01.465Z,10.65
2019-04-07T00:49:29.893Z,10.59
2019-04-07T00:51:59.635Z,10.53
2019-04-07T00:54:28.161Z,10.49
2019-04-07T00:56:56.586Z,10.43
2019-04-07T00:59:25.426Z,10.37
2019-04-07T01:01:53.762Z,10.33
2019-04-07T01:04:21.965Z,10.29
2019-04-07T01:06:50.195Z,10.34
2019-04-07T01:09:18.762Z,10.39
2019-04-07T01:11:47.449Z,10.45
2019-04-07T01:14:16.044Z,10.47
2019-04-07T01:16:44.290Z,10.45
2019-04-07T01:19:13.401Z,10.42
2019-04-07T01:21:41.608Z,10.40
2019-04-07T01:24:09.899Z,10.39
2019-04-07T01:26:38.165Z,10.40
2019-04-07T01:29:06.396Z,10.44
2019-04-07T01:31:35.224Z,10.45
2019-04-07T01:34:03.708Z,10.41
2019-04-07T01:36:32.596Z,10.47
2019-04-07T01:39:01.450Z,10.50
2019-04-07T01:41:43.060Z,10.47
2019-04-07T01:44:12.920Z,10.40
2019-04-07T01:46:45.877Z,10.43
2019-04-07T01:49:18.446Z,10.40
2019-04-07T01:51:50.959Z,10.40
2019-04-07T01:54:37.263Z,10.40
2019-04-07T01:57:13.512Z,10.43
2019-04-07T01:59:59.576Z,10.40
2019-04-07T02:02:41.363Z,10.33
2019-04-07T02:05:27.311Z,10.25
2019-04-07T02:08:13.091Z,10.19
2019-04-07T02:10:59.884Z,10.12
2019-04-07T02:13:46.067Z,10.09
2019-04-07T02:16:21.873Z,10.17
2019-04-07T02:18:51.898Z,10.30
2019-04-07T02:21:22.244Z,10.37
2019-04-07T02:23:57.860Z,10.47
2019-04-07T02:26:39.825Z,10.52
2019-04-07T02:29:21.933Z,10.61
2019-04-07T02:31:58.541Z,10.67
2019-04-07T02:34:37.910Z,10.71
2019-04-07T02:37:08.060Z,10.72
2019-04-07T02:39:43.843Z,10.73
2019-04-07T02:42:16.839Z,10.68
2019-04-07T02:45:02.774Z,10.61
2019-04-07T02:47:41.840Z,10.48
2019-04-07T02:50:12.458Z,10.35
2019-04-07T02:52:52.726Z,10.23
2019-04-07T02:55:26.594Z,10.15
2019-04-07T02:57:59.179Z,10.09
2019-04-07T03:00:29.716Z,10.06
2019-04-07T03:03:14.501Z,10.02
2019-04-07T03:05:44.359Z,9.99
2019-04-07T03:08:26.980Z,9.94
2019-04-07T03:10:57.166Z,9.90
2019-04-07T03:13:27.015Z,9.84
2019-04-07T03:15:57.883Z,9.79
2019-04-07T03:18:28.033Z,9.74
2019-04-07T03:21:07.682Z,9.70
2019-04-07T03:23:38.357Z,9.67
2019-04-07T03:26:23.731Z,9.61
2019-04-07T03:29:09.782Z,9.57
2019-04-07T03:31:49.233Z,9.52
2019-04-07T03:34:33.382Z,9.48
2019-04-07T03:37:31.258Z,9.40
2019-04-07T03:39:49.322Z,9.36
2019-04-07T03:42:24.998Z,9.30
2019-04-07T03:45:11.280Z,9.25
2019-04-07T03:47:41.920Z,9.21
2019-04-07T03:50:27.846Z,9.16
2019-04-07T03:53:06.570Z,9.12
2019-04-07T03:55:39.407Z,9.07
2019-04-07T03:58:09.939Z,9.01
2019-04-07T04:01:14.357Z,8.96
2019-04-07T04:03:49.726Z,8.92
2019-04-07T04:06:35.935Z,8.88
2019-04-07T04:09:24.239Z,8.81
2019-04-07T04:11:59.941Z,8.78
2019-04-07T04:14:31.303Z,8.73
2019-04-07T04:16:59.650Z,8.71
2019-04-07T04:19:28.785Z,8.66
2019-04-07T04:21:57.074Z,8.63
2019-04-07T04:24:26.498Z,8.60
2019-04-07T04:26:54.819Z,8.56
2019-04-07T04:29:23.349Z,8.53
2019-04-07T04:31:52.860Z,8.49
2019-04-07T04:34:21.165Z,8.46
2019-04-07T04:36:50.233Z,8.44
2019-04-07T04:39:20.065Z,8.40
2019-04-07T04:41:49.013Z,8.40
2019-04-07T04:44:18.633Z,8.36
2019-04-07T04:46:47.404Z,8.35
2019-04-07T04:49:15.710Z,8.46
2019-04-07T04:51:44.398Z,8.56
2019-04-07T04:54:12.980Z,8.63
2019-04-07T04:56:41.434Z,8.71
2019-04-07T04:59:09.720Z,8.84
2019-04-07T05:01:37.950Z,8.91
2019-04-07T05:04:06.333Z,8.98
2019-04-07T05:06:34.596Z,9.06
2019-04-07T05:09:04.760Z,9.14
2019-04-07T05:11:33.696Z,9.19
2019-04-07T05:14:02.872Z,9.24
2019-04-07T05:16:31.112Z,9.31
2019-04-07T05:18:59.649Z,9.34
2019-04-07T05:21:28.238Z,9.41
2019-04-07T05:23:57.205Z,9.45
2019-04-07T05:26:25.591Z,9.49
2019-04-07T05:28:53.880Z,9.53
2019-04-07T05:31:22.478Z,9.58
2019-04-07T05:33:52.139Z,9.61
2019-04-07T05:36:20.354Z,9.66
2019-04-07T05:38:48.794Z,9.71
2019-04-07T05:41:17.154Z,9.75
2019-04-07T05:43:45.884Z,9.80
2019-04-07T05:46:14.040Z,9.87
2019-04-07T05:48:42.513Z,9.91
2019-04-07T05:51:10.746Z,9.96
2019-04-07T05:53:38.974Z,10.01
2019-04-07T05:56:07.637Z,10.07
2019-04-07T05:58:38.605Z,10.13
2019-04-07T06:01:06.346Z,10.23
2019-04-07T06:03:38.715Z,10.33
2019-04-07T06:06:05.036Z,10.41
2019-04-07T06:08:37.966Z,10.50
2019-04-07T06:11:04.152Z,10.56
2019-04-07T06:13:32.937Z,10.65
2019-04-07T06:16:01.152Z,10.72
2019-04-07T06:18:32.689Z,10.79
2019-04-07T06:20:59.659Z,10.87
2019-04-07T06:23:29.849Z,10.93
2019-04-07T06:26:00.018Z,11.02
2019-04-07T06:28:29.243Z,11.12
2019-04-07T06:31:00.177Z,11.19
2019-04-07T06:33:27.571Z,11.28
2019-04-07T06:35:56.181Z,11.34
2019-04-07T06:38:31.254Z,11.43
2019-04-07T06:40:57.775Z,11.49
2019-04-07T06:43:24.790Z,11.58
2019-04-07T06:45:55.006Z,11.67
2019-04-07T06:48:23.333Z,11.76
2019-04-07T06:50:58.413Z,11.83
2019-04-07T06:53:25.822Z,11.90
2019-04-07T06:56:03.282Z,11.95
2019-04-07T06:58:40.850Z,12.04
2019-04-07T07:01:11.062Z,12.10
2019-04-07T07:03:46.455Z,12.13
2019-04-07T07:06:19.235Z,12.18
2019-04-07T07:08:54.084Z,12.24
2019-04-07T07:11:42.804Z,12.28
2019-04-07T07:14:31.205Z,12.32
2019-04-07T07:16:54.385Z,12.39
2019-04-07T07:19:36.406Z,12.44
2019-04-07T07:22:13.227Z,12.46
2019-04-07T07:24:39.583Z,12.49
2019-04-07T07:27:10.341Z,12.52
2019-04-07T07:29:37.779Z,12.51
2019-04-07T07:32:06.416Z,12.58
2019-04-07T07:34:35.763Z,12.59
2019-04-07T07:37:05.162Z,12.64
2019-04-07T07:39:34.079Z,12.69
2019-04-07T07:42:02.894Z,12.74
2019-04-07T07:44:34.348Z,12.77
2019-04-07T07:47:01.601Z,12.86
2019-04-07T07:49:32.527Z,12.90
2019-04-07T07:52:00.314Z,12.91
2019-04-07T07:54:29.892Z,12.96
2019-04-07T07:56:59.060Z,13.00
2019-04-07T07:59:30.613Z,13.06
2019-04-07T08:01:58.718Z,13.11
2019-04-07T08:04:27.666Z,13.09
2019-04-07T08:06:55.858Z,13.16
2019-04-07T08:09:26.006Z,13.19
2019-04-07T08:11:54.384Z,13.17
2019-04-07T08:14:23.121Z,13.25
2019-04-07T08:16:52.377Z,13.30
2019-04-07T08:19:24.253Z,13.32
2019-04-07T08:21:51.982Z,13.29
2019-04-07T08:24:20.756Z,13.36
2019-04-07T08:26:50.237Z,13.36
2019-04-07T08:29:18.609Z,13.45
2019-04-07T08:31:47.050Z,13.50
2019-04-07T08:34:15.672Z,13.56
2019-04-07T08:36:45.384Z,13.60
2019-04-07T08:39:22.977Z,13.60
2019-04-07T08:41:45.192Z,13.61
2019-04-07T08:44:14.019Z,13.67
2019-04-07T08:46:43.284Z,13.75
2019-04-07T08:49:12.791Z,13.78
2019-04-07T08:51:41.725Z,13.84
2019-04-07T08:54:10.091Z,13.92
2019-04-07T08:56:38.756Z,13.97
2019-04-07T08:59:09.445Z,13.98
2019-04-07T09:01:37.235Z,14.04
2019-04-07T09:04:05.626Z,14.06
2019-04-07T09:06:33.841Z,14.12
2019-04-07T09:09:04.006Z,14.16
2019-04-07T09:11:32.440Z,14.15
2019-04-07T09:14:00.667Z,14.22
2019-04-07T09:16:52.156Z,14.30
2019-04-07T09:19:28.805Z,14.39
2019-04-07T09:21:58.738Z,14.41
2019-04-07T09:24:34.113Z,14.57
2019-04-07T09:27:04.210Z,14.64
2019-04-07T09:29:40.964Z,14.77
2019-04-07T09:32:29.083Z,14.83
2019-04-07T09:35:14.436Z,14.93
2019-04-07T09:37:48.133Z,15.02
2019-04-07T09:40:34.005Z,15.13
2019-04-07T09:43:06.342Z,15.25
2019-04-07T09:45:39.591Z,15.30
2019-04-07T09:48:26.745Z,15.41
2019-04-07T09:51:02.545Z,15.50
2019-04-07T09:53:34.955Z,15.50
2019-04-07T09:56:19.984Z,15.49
2019-04-07T09:58:53.541Z,15.57
2019-04-07T10:01:27.810Z,15.70
2019-04-07T10:03:57.381Z,15.69
2019-04-07T10:06:33.237Z,15.79
2019-04-07T10:09:06.679Z,15.78
2019-04-07T10:11:37.326Z,15.82
2019-04-07T10:14:13.846Z,15.90
2019-04-07T10:16:53.471Z,15.96
2019-04-07T10:19:24.273Z,16.04
2019-04-07T10:21:55.073Z,16.08
2019-04-07T10:24:25.864Z,16.22
2019-04-07T10:26:58.876Z,16.31
2019-04-07T10:29:29.013Z,16.38
2019-04-07T10:31:58.871Z,16.53
2019-04-07T10:34:29.040Z,16.67
2019-04-07T10:37:08.102Z,16.71
2019-04-07T10:39:41.448Z,16.69
2019-04-07T10:42:14.010Z,16.67
2019-04-07T10:45:00.393Z,16.58
2019-04-07T10:47:32.627Z,16.59
2019-04-07T10:50:17.918Z,16.64
2019-04-07T10:52:53.575Z,16.63
2019-04-07T10:55:24.166Z,16.58
2019-04-07T10:58:10.623Z,16.67
2019-04-07T11:00:50.820Z,16.73
2019-04-07T11:03:32.942Z,16.70
2019-04-07T11:06:03.885Z,16.72
2019-04-07T11:08:33.890Z,16.76
2019-04-07T11:11:22.265Z,16.80
2019-04-07T11:13:56.029Z,16.87
2019-04-07T11:16:38.727Z,17.06
2019-04-07T11:19:08.941Z,17.20
2019-04-07T11:21:56.756Z,17.32
2019-04-07T11:24:31.136Z,17.43
2019-04-07T11:27:16.705Z,17.50
2019-04-07T11:29:46.726Z,17.47
2019-04-07T11:32:32.471Z,17.53
2019-04-07T11:35:18.476Z,17.58
2019-04-07T11:37:54.448Z,17.60
2019-04-07T11:40:42.509Z,17.67
2019-04-07T11:43:14.116Z,17.62
2019-04-07T11:45:56.456Z,17.65
2019-04-07T11:48:21.908Z,17.62
2019-04-07T11:50:52.203Z,17.65
2019-04-07T11:53:27.773Z,17.74
2019-04-07T11:55:57.704Z,17.85
2019-04-07T11:58:33.208Z,17.98
2019-04-07T12:01:02.500Z,18.08
2019-04-07T12:03:38.736Z,18.09
2019-04-07T12:06:08.691Z,18.17
2019-04-07T12:08:41.121Z,18.26
2019-04-07T12:11:27.680Z,18.33
2019-04-07T12:14:00.858Z,18.32
2019-04-07T12:16:30.907Z,18.42
2019-04-07T12:19:17.398Z,18.47
2019-04-07T12:21:48.128Z,18.58
2019-04-07T12:24:32.592Z,18.60
2019-04-07T12:27:05.104Z,18.59
2019-04-07T12:29:35.349Z,18.69
2019-04-07T12:32:11.592Z,18.71
2019-04-07T12:34:46.622Z,18.76
2019-04-07T12:37:19.112Z,18.77
2019-04-07T12:39:50.751Z,18.82
2019-04-07T12:42:20.875Z,18.92
2019-04-07T12:44:50.973Z,19.05
2019-04-07T12:47:32.675Z,19.05
2019-04-07T12:50:02.777Z,19.03
2019-04-07T12:52:33.472Z,19.04
2019-04-07T12:55:17.809Z,18.93
2019-04-07T12:58:03.126Z,18.84
2019-04-07T13:00:57.864Z,18.81
2019-04-07T13:03:38.342Z,18.84
2019-04-07T13:06:10.975Z,18.97
2019-04-07T13:08:51.980Z,18.83
2019-04-07T13:11:31.276Z,18.83
2019-04-07T13:14:10.181Z,18.88
2019-04-07T13:16:42.756Z,18.95
2019-04-07T13:19:14.350Z,19.07
2019-04-07T13:21:46.030Z,19.19
2019-04-07T13:24:30.328Z,19.23
2019-04-07T13:26:50.846Z,19.26
2019-04-07T13:29:23.742Z,19.39
2019-04-07T13:31:58.090Z,19.50
2019-04-07T13:34:34.232Z,19.68
2019-04-07T13:37:04.573Z,19.81
2019-04-07T13:39:40.767Z,19.99
2019-04-07T13:42:26.645Z,20.04
2019-04-07T13:45:04.297Z,20.15
2019-04-07T13:47:46.994Z,20.16
2019-04-07T13:50:34.473Z,20.32
2019-04-07T13:53:25.767Z,20.59
2019-04-07T13:55:59.525Z,20.97
2019-04-07T13:58:33.099Z,21.07
2019-04-07T14:01:13.762Z,21.08
2019-04-07T14:03:44.174Z,20.93
2019-04-07T14:06:30.389Z,20.66
2019-04-07T14:09:00.256Z,20.38
2019-04-07T14:11:36.072Z,20.36
2019-04-07T14:14:09.760Z,20.58
2019-04-07T14:16:40.123Z,20.88
2019-04-07T14:19:10.194Z,20.94
2019-04-07T14:21:56.511Z,20.88
2019-04-07T14:24:39.394Z,20.98
2019-04-07T14:27:22.013Z,21.19
2019-04-07T14:29:52.436Z,21.34
2019-04-07T14:32:28.403Z,21.54
2019-04-07T14:35:04.324Z,21.64
2019-04-07T14:37:35.285Z,21.84
2019-04-07T14:40:20.388Z,22.14
2019-04-07T14:42:51.890Z,22.44
2019-04-07T14:45:24.728Z,22.65
2019-04-07T14:48:04.173Z,23.04
2019-04-07T14:50:49.512Z,23.34
2019-04-07T14:53:20.036Z,23.70
2019-04-07T14:55:52.597Z,23.64
2019-04-07T14:58:22.471Z,23.78
2019-04-07T15:00:52.584Z,23.68
2019-04-07T15:03:21.417Z,23.60
2019-04-07T15:05:56.414Z,23.43
2019-04-07T15:08:26.400Z,23.22
2019-04-07T15:10:58.686Z,22.80
2019-04-07T15:13:29.375Z,22.40
2019-04-07T15:15:58.352Z,22.17
2019-04-07T15:18:27.532Z,21.89
2019-04-07T15:20:56.126Z,21.91
2019-04-07T15:23:25.064Z,21.66
2019-04-07T15:25:53.473Z,21.57
2019-04-07T15:28:22.551Z,21.16
2019-04-07T15:30:51.658Z,21.08
2019-04-07T15:33:19.947Z,21.04
2019-04-07T15:35:49.443Z,20.88
2019-04-07T15:38:22.730Z,20.89
2019-04-07T15:40:48.317Z,20.87
2019-04-07T15:43:17.050Z,20.79
2019-04-07T15:45:45.616Z,20.86
2019-04-07T15:48:14.056Z,20.82
2019-04-07T15:50:42.510Z,20.80
2019-04-07T15:53:13.489Z,20.71
2019-04-07T15:55:47.619Z,20.61
2019-04-07T15:58:10.789Z,20.57
2019-04-07T16:00:38.974Z,20.45
2019-04-07T16:03:07.470Z,20.35
2019-04-07T16:05:42.027Z,20.22
2019-04-07T16:08:06.517Z,20.18
2019-04-07T16:10:34.832Z,20.11
2019-04-07T16:13:03.062Z,20.03
2019-04-07T16:15:31.894Z,19.90
2019-04-07T16:18:03.377Z,19.85
2019-04-07T16:20:35.647Z,19.74
2019-04-07T16:23:00.034Z,19.59
2019-04-07T16:25:29.151Z,19.49
2019-04-07T16:27:58.739Z,19.48
2019-04-07T16:30:27.100Z,19.47
2019-04-07T16:32:59.690Z,19.43
2019-04-07T16:35:26.337Z,19.41
2019-04-07T16:37:55.381Z,19.35
2019-04-07T16:40:23.832Z,19.30
2019-04-07T16:43:04.578Z,19.20
2019-04-07T16:45:22.371Z,19.18
2019-04-07T16:47:51.166Z,19.14
2019-04-07T16:50:20.623Z,19.13
2019-04-07T16:52:49.690Z,19.09
2019-04-07T16:55:37.403Z,19.07
2019-04-07T16:58:06.357Z,19.03
2019-04-07T17:00:34.735Z,18.96
2019-04-07T17:03:04.458Z,18.92
2019-04-07T17:05:33.366Z,18.90
2019-04-07T17:08:01.761Z,18.86
2019-04-07T17:10:33.866Z,18.83
2019-04-07T17:13:02.810Z,18.79
2019-04-07T17:15:30.553Z,18.75
2019-04-07T17:17:58.893Z,18.72
2019-04-07T17:20:28.460Z,18.68
2019-04-07T17:22:57.055Z,18.65
2019-04-07T17:25:25.609Z,18.82
2019-04-07T17:27:53.844Z,18.64
2019-04-07T17:30:24.263Z,18.58
2019-04-07T17:32:53.349Z,18.49
2019-04-07T17:35:21.537Z,18.45
2019-04-07T17:37:50.245Z,18.42
2019-04-07T17:40:20.331Z,18.38
2019-04-07T17:42:52.684Z,18.35
2019-04-07T17:45:35.454Z,18.34
2019-04-07T17:48:21.757Z,18.32
2019-04-07T17:50:51.627Z,18.28
2019-04-07T17:53:21.504Z,18.21
2019-04-07T17:55:51.363Z,18.17
2019-04-07T17:58:39.955Z,18.13
2019-04-07T18:01:23.039Z,18.10
2019-04-07T18:03:56.545Z,18.05
2019-04-07T18:06:32.283Z,18.02
2019-04-07T18:09:20.922Z,17.95
2019-04-07T18:12:03.060Z,17.89
2019-04-07T18:14:31.133Z,17.84
2019-04-07T18:17:04.474Z,17.78
2019-04-07T18:19:43.475Z,17.71
2019-04-07T18:22:13.778Z,17.65
2019-04-07T18:25:02.814Z,17.56
2019-04-07T18:27:34.698Z,17.52
2019-04-07T18:30:05.526Z,17.49
2019-04-07T18:32:41.767Z,17.43
2019-04-07T18:35:11.080Z,17.39
2019-04-07T18:37:57.865Z,17.34
2019-04-07T18:40:30.799Z,17.32
2019-04-07T18:43:01.127Z,17.28
2019-04-07T18:45:36.527Z,17.22
2019-04-07T18:48:13.521Z,17.17
2019-04-07T18:50:49.982Z,17.13
2019-04-07T18:53:20.702Z,17.06
2019-04-07T18:55:53.720Z,17.00
2019-04-07T18:58:26.727Z,16.96
2019-04-07T19:01:07.402Z,16.91
2019-04-07T19:03:48.479Z,16.87
2019-04-07T19:06:20.192Z,16.86
2019-04-07T19:08:55.105Z,16.83
2019-04-07T19:11:35.235Z,16.79
2019-04-07T19:14:24.528Z,16.76
2019-04-07T19:16:53.073Z,16.73
2019-04-07T19:19:23.534Z,16.70
2019-04-07T19:21:53.749Z,16.70
2019-04-07T19:24:23.914Z,16.68
2019-04-07T19:27:12.001Z,16.66
2019-04-07T19:29:34.254Z,16.64
2019-04-07T19:32:13.534Z,16.60
2019-04-07T19:34:55.619Z,16.59
2019-04-07T19:37:28.386Z,16.56
2019-04-07T19:40:01.539Z,16.52
2019-04-07T19:42:30.084Z,16.50
2019-04-07T19:45:00.219Z,16.46
2019-04-07T19:47:39.586Z,16.46
2019-04-07T19:50:11.233Z,16.42
2019-04-07T19:52:58.342Z,16.39
2019-04-07T19:55:28.423Z,16.34
2019-04-07T19:58:16.164Z,16.31
2019-04-07T20:00:52.008Z,16.29
2019-04-07T20:03:20.595Z,16.24
2019-04-07T20:05:53.517Z,16.17
2019-04-07T20:08:23.376Z,16.12
2019-04-07T20:10:55.895Z,16.09
2019-04-07T20:13:40.444Z,16.07
2019-04-07T20:16:26.162Z,16.03
2019-04-07T20:19:13.016Z,16.01
2019-04-07T20:21:49.433Z,15.98
2019-04-07T20:24:29.559Z,15.96
2019-04-07T20:26:59.647Z,15.95
2019-04-07T20:29:31.758Z,15.92
2019-04-07T20:32:01.358Z,15.92
2019-04-07T20:34:48.326Z,15.90
2019-04-07T20:37:34.357Z,15.88
2019-04-07T20:40:05.324Z,15.88
2019-04-07T20:42:54.393Z,15.82
2019-04-07T20:45:25.072Z,15.78
2019-04-07T20:47:59.206Z,15.77
2019-04-07T20:50:45.718Z,15.71
2019-04-07T20:53:29.039Z,15.70
2019-04-07T20:56:02.560Z,15.69
2019-04-07T20:58:55.267Z,15.68
2019-04-07T21:01:22.571Z,15.67
2019-04-07T21:03:58.250Z,15.65
2019-04-07T21:06:31.678Z,15.62
2019-04-07T21:09:10.122Z,15.63
2019-04-07T21:11:56.779Z,15.61
2019-04-07T21:14:26.677Z,15.61
2019-04-07T21:17:07.459Z,15.62
2019-04-07T21:19:38.557Z,15.61
2019-04-07T21:22:15.637Z,15.61
2019-04-07T21:24:55.443Z,15.61
2019-04-07T21:27:37.521Z,15.62
2019-04-07T21:30:26.975Z,15.62
2019-04-07T21:33:13.201Z,15.64
2019-04-07T21:36:01.174Z,15.66
2019-04-07T21:38:37.769Z,15.66
2019-04-07T21:41:16.885Z,15.64
2019-04-07T21:43:55.427Z,15.62
2019-04-07T21:46:34.602Z,15.60
2019-04-07T21:49:05.518Z,15.57
2019-04-07T21:51:38.602Z,15.52
2019-04-07T21:54:08.473Z,15.49
2019-04-07T21:56:50.140Z,15.49
2019-04-07T21:59:33.601Z,15.48
2019-04-07T22:02:19.457Z,15.48
2019-04-07T22:05:07.445Z,15.48
2019-04-07T22:07:37.608Z,15.47
2019-04-07T22:10:09.411Z,15.47
2019-04-07T22:12:38.035Z,15.47
2019-04-07T22:15:11.636Z,15.47
2019-04-07T22:17:39.263Z,15.46
2019-04-07T22:20:08.513Z,15.45
2019-04-07T22:22:36.722Z,15.42
2019-04-07T22:25:09.591Z,15.41
2019-04-07T22:27:38.061Z,15.40
2019-04-07T22:30:09.133Z,15.37
2019-04-07T22:32:37.385Z,15.34
2019-04-07T22:35:06.873Z,15.31
2019-04-07T22:37:35.660Z,15.29
2019-04-07T22:40:07.077Z,15.27
2019-04-07T22:42:35.314Z,15.24
2019-04-07T22:45:04.062Z,15.24
2019-04-07T22:47:32.294Z,15.22
2019-04-07T22:50:02.732Z,15.20
2019-04-07T22:52:30.475Z,15.18
2019-04-07T22:55:02.584Z,15.14
2019-04-07T22:57:29.223Z,15.10
2019-04-07T22:59:58.706Z,15.06
2019-04-07T23:02:27.638Z,15.02
2019-04-07T23:04:55.893Z,14.99
2019-04-07T23:07:24.360Z,14.96
2019-04-07T23:09:52.589Z,14.92
2019-04-07T23:12:20.994Z,14.91
2019-04-07T23:14:49.723Z,14.88
2019-04-07T23:17:17.961Z,14.87
2019-04-07T23:19:46.287Z,14.86
2019-04-07T23:22:14.518Z,14.86
2019-04-07T23:24:43.187Z,14.86
2019-04-07T23:27:12.407Z,14.83
2019-04-07T23:29:40.684Z,14.81
2019-04-07T23:32:09.538Z,14.81
2019-04-07T23:34:37.737Z,14.80
2019-04-07T23:37:06.088Z,14.78
2019-04-07T23:39:34.290Z,14.77
2019-04-07T23:42:02.811Z,14.79
2019-04-07T23:44:31.780Z,14.76
2019-04-07T23:47:00.012Z,14.71
2019-04-07T23:49:28.254Z,14.70
2019-04-07T23:51:56.494Z,14.68
2019-04-07T23:54:24.958Z,14.65
2019-04-07T23:56:54.139Z,14.63
2019-04-07T23:59:22.825Z,14.61
